Big Bear Station Historical Data
Daily Summary for January 26, 2019 Units:  English    Metric   Both
Next Day »
Daily Weekly Monthly Yearly Custom
  High: Low: Average:
Temperature: 50.0 °F 33.6 °F 39.7 °F
Dew Point: 19.9 °F 12.8 °F 16.5 °F
Humidity: 53% 26% 39%
Wind Speed: 5.3mph 0.0mph 1mph
Wind Gust: -999.0mph - -
Wind- - SSW
Pressure: 23.74 in 23.65 in -
Precipitation: 0.00 in    
Historical Graphs
 
 
Tabular Data for January 26, 2019
Time Temperature Dew Point Pressure Wind Wind Speed Wind Gust Humidity Rainfall Rate (Hourly)
00:13 37.8 °F 16.2 °F 23.65 in SE 1.1 mph -999.0 mph 41% 0.00 in
00:28 37.2 °F 15.6 °F 23.65 in Calm   -999.0 mph 41% 0.00 in
00:44 37.8 °F 15.0 °F 23.65 in ESE 1.1 mph -999.0 mph 39% 0.00 in
00:59 37.4 °F 15.8 °F 23.65 in East 1.7 mph -999.0 mph 41% 0.00 in
01:14 37.2 °F 15.6 °F 23.65 in East 1.7 mph -999.0 mph 41% 0.00 in
01:29 37.9 °F 15.7 °F 23.65 in North 2.7 mph -999.0 mph 40% 0.00 in
01:44 37.2 °F 16.2 °F 23.66 in SSW 2.7 mph -999.0 mph 42% 0.00 in
02:00 37.2 °F 16.2 °F 23.66 in NE 2.2 mph -999.0 mph 42% 0.00 in
02:15 37.2 °F 15.6 °F 23.67 in ESE 2.7 mph -999.0 mph 41% 0.00 in
02:30 37.8 °F 16.7 °F 23.67 in Calm   -999.0 mph 42% 0.00 in
02:45 37.0 °F 16.0 °F 23.68 in Calm   -999.0 mph 42% 0.00 in
03:01 36.9 °F 17.0 °F 23.68 in Calm   -999.0 mph 44% 0.00 in
03:16 36.3 °F 17.0 °F 23.67 in Calm   -999.0 mph 45% 0.00 in
03:31 36.5 °F 17.2 °F 23.67 in South 4.7 mph -999.0 mph 45% 0.00 in
03:46 35.8 °F 16.5 °F 23.67 in West 1.1 mph -999.0 mph 45% 0.00 in
04:02 35.1 °F 17.4 °F 23.67 in Calm   -999.0 mph 48% 0.00 in
04:17 34.7 °F 17.9 °F 23.67 in SSE 2.7 mph -999.0 mph 50% 0.00 in
04:32 34.9 °F 17.7 °F 23.67 in Calm   -999.0 mph 49% 0.00 in
04:47 34.5 °F 17.3 °F 23.68 in Calm   -999.0 mph 49% 0.00 in
05:03 34.2 °F 17.5 °F 23.68 in Calm   -999.0 mph 50% 0.00 in
05:18 33.6 °F 16.5 °F 23.68 in Calm   -999.0 mph 49% 0.00 in
05:33 35.1 °F 14.8 °F 23.68 in Calm   -999.0 mph 43% 0.00 in
05:48 34.7 °F 15.5 °F 23.69 in Calm   -999.0 mph 45% 0.00 in
06:03 35.1 °F 14.8 °F 23.70 in Calm   -999.0 mph 43% 0.00 in
06:18 34.7 °F 16.0 °F 23.70 in Calm   -999.0 mph 46% 0.00 in
06:34 35.1 °F 14.3 °F 23.70 in NNW 2.2 mph -999.0 mph 42% 0.00 in
06:49 36.0 °F 14.0 °F 23.71 in Calm   -999.0 mph 40% 0.00 in
07:04 35.2 °F 14.9 °F 23.72 in Calm   -999.0 mph 43% 0.00 in
07:19 34.9 °F 15.7 °F 23.72 in Calm   -999.0 mph 45% 0.00 in
07:35 35.2 °F 15.4 °F 23.72 in Calm   -999.0 mph 44% 0.00 in
07:50 35.1 °F 14.3 °F 23.72 in Calm   -999.0 mph 42% 0.00 in
08:05 35.6 °F 13.6 °F 23.71 in Calm   -999.0 mph 40% 0.00 in
08:20 36.0 °F 13.4 °F 23.72 in Calm   -999.0 mph 39% 0.00 in
08:35 37.2 °F 13.9 °F 23.72 in East 2.2 mph -999.0 mph 38% 0.00 in
08:51 38.5 °F 15.1 °F 23.72 in Calm   -999.0 mph 38% 0.00 in
09:06 38.8 °F 15.3 °F 23.72 in NW 1.1 mph -999.0 mph 38% 0.00 in
09:21 39.6 °F 14.8 °F 23.73 in East 1.1 mph -999.0 mph 36% 0.00 in
09:36 40.6 °F 15.1 °F 23.73 in NNW 2.2 mph -999.0 mph 35% 0.00 in
09:52 41.5 °F 13.8 °F 23.73 in Calm   -999.0 mph 32% 0.00 in
10:07 42.3 °F 14.5 °F 23.73 in NNW 2.7 mph -999.0 mph 32% 0.00 in
10:22 43.0 °F 13.6 °F 23.73 in West 4.7 mph -999.0 mph 30% 0.00 in
10:37 43.5 °F 14.8 °F 23.73 in East 3.7 mph -999.0 mph 31% 0.00 in
10:53 44.8 °F 12.8 °F 23.73 in NNE 5.3 mph -999.0 mph 27% 0.00 in
11:08 45.3 °F 14.9 °F 23.74 in East 1.1 mph -999.0 mph 29% 0.00 in
11:23 46.9 °F 16.3 °F 23.74 in SSE 1.1 mph -999.0 mph 29% 0.00 in
11:38 48.0 °F 18.0 °F 23.73 in Calm   -999.0 mph 30% 0.00 in
11:54 46.8 °F 17.0 °F 23.72 in NNE 1.7 mph -999.0 mph 30% 0.00 in
12:09 48.4 °F 17.6 °F 23.72 in Calm   -999.0 mph 29% 0.00 in
12:24 48.4 °F 18.4 °F 23.71 in NW 2.7 mph -999.0 mph 30% 0.00 in
12:40 49.8 °F 17.1 °F 23.70 in SSW 3.7 mph -999.0 mph 27% 0.00 in
12:55 48.7 °F 17.8 °F 23.69 in WNW 2.7 mph -999.0 mph 29% 0.00 in
13:10 50.0 °F 16.4 °F 23.69 in North 4.7 mph -999.0 mph 26% 0.00 in
13:25 48.6 °F 18.5 °F 23.68 in NW 4.7 mph -999.0 mph 30% 0.00 in
13:40 49.1 °F 18.2 °F 23.68 in NW 2.7 mph -999.0 mph 29% 0.00 in
13:56 49.1 °F 18.2 °F 23.68 in Calm   -999.0 mph 29% 0.00 in
14:11 48.7 °F 19.4 °F 23.67 in NNW 2.7 mph -999.0 mph 31% 0.00 in
14:26 49.3 °F 19.9 °F 23.67 in WSW 2.7 mph -999.0 mph 31% 0.00 in
14:41 49.3 °F 15.8 °F 23.67 in Calm   -999.0 mph 26% 0.00 in
14:56 49.3 °F 17.5 °F 23.67 in NE 2.2 mph -999.0 mph 28% 0.00 in
15:12 48.9 °F 17.2 °F 23.67 in Calm   -999.0 mph 28% 0.00 in
15:27 48.4 °F 17.6 °F 23.67 in Calm   -999.0 mph 29% 0.00 in
15:42 47.7 °F 17.8 °F 23.67 in Calm   -999.0 mph 30% 0.00 in
15:57 46.9 °F 17.1 °F 23.68 in Calm   -999.0 mph 30% 0.00 in
16:13 46.2 °F 17.9 °F 23.68 in Calm   -999.0 mph 32% 0.00 in
16:28 45.1 °F 19.7 °F 23.68 in Calm   -999.0 mph 36% 0.00 in
16:43 43.7 °F 19.1 °F 23.68 in Calm   -999.0 mph 37% 0.00 in
16:58 43.0 °F 15.8 °F 23.68 in Calm   -999.0 mph 33% 0.00 in
17:13 41.7 °F 15.4 °F 23.68 in Calm   -999.0 mph 34% 0.00 in
17:29 40.6 °F 13.7 °F 23.69 in Calm   -999.0 mph 33% 0.00 in
17:44 39.6 °F 14.8 °F 23.69 in Calm   -999.0 mph 36% 0.00 in
17:59 39.0 °F 14.9 °F 23.70 in Calm   -999.0 mph 37% 0.00 in
18:14 38.1 °F 18.6 °F 23.71 in Calm   -999.0 mph 45% 0.00 in
18:29 37.2 °F 16.2 °F 23.71 in Calm   -999.0 mph 42% 0.00 in
18:45 36.7 °F 18.8 °F 23.71 in Calm   -999.0 mph 48% 0.00 in
19:00 36.0 °F 17.7 °F 23.71 in Calm   -999.0 mph 47% 0.00 in
19:15 35.8 °F 17.5 °F 23.71 in Calm   -999.0 mph 47% 0.00 in
19:30 36.3 °F 16.5 °F 23.71 in Calm   -999.0 mph 44% 0.00 in
19:46 37.4 °F 15.8 °F 23.71 in South 1.1 mph -999.0 mph 41% 0.00 in
20:01 37.6 °F 15.4 °F 23.72 in SSE 2.2 mph -999.0 mph 40% 0.00 in
20:16 36.7 °F 15.2 °F 23.72 in Calm   -999.0 mph 41% 0.00 in
20:31 35.8 °F 15.5 °F 23.72 in Calm   -999.0 mph 43% 0.00 in
20:46 35.6 °F 16.8 °F 23.72 in South 2.7 mph -999.0 mph 46% 0.00 in
21:02 35.6 °F 16.3 °F 23.72 in SSW 2.2 mph -999.0 mph 45% 0.00 in
21:17 35.2 °F 16.0 °F 23.73 in Calm   -999.0 mph 45% 0.00 in
21:32 35.8 °F 18.0 °F 23.73 in Calm   -999.0 mph 48% 0.00 in
21:47 36.0 °F 18.7 °F 23.73 in Calm   -999.0 mph 49% 0.00 in
22:03 36.1 °F 18.3 °F 23.73 in South 1.7 mph -999.0 mph 48% 0.00 in
22:18 35.4 °F 18.6 °F 23.73 in Calm   -999.0 mph 50% 0.00 in
22:33 35.1 °F 18.3 °F 23.73 in Calm   -999.0 mph 50% 0.00 in
22:49 34.9 °F 18.6 °F 23.73 in Calm   -999.0 mph 51% 0.00 in
23:04 35.8 °F 19.0 °F 23.73 in Calm   -999.0 mph 50% 0.00 in
23:19 34.9 °F 18.6 °F 23.72 in Calm   -999.0 mph 51% 0.00 in
23:34 34.3 °F 18.0 °F 23.72 in Calm   -999.0 mph 51% 0.00 in
23:49 34.2 °F 18.8 °F 23.72 in Calm   -999.0 mph 53% 0.00 in
Big Bear CA Weather